EmailTwitter


Observations de surface / Québec / LFLS

Régions: Québec | Canada | États-Unis | Europe | France | UK | Elsewhere
Station
Affichage
Infos & localisation pour LFLS | Aide pour décoder les METARs

Observations prises le 2017-02-24 à 10H00 UTC à GRENOBLE/ST. GEO, FR (LFLS)

Etat du ciel: couvert.

Température: 8.0 Celsius

Point de rosée: 2.0 Celsius

Humidité relative: 66%

Facteur vent: 5.

Vents: Nord à 19 km/h ou 10 noeuds.

Pression au niveau moyen de la mer: 101.50 kilopascals.

Visibilité horizontale: 6.21 milles terrestres ou 9.94 kilomètres.

Hauteur du plafond: 1829 mètres ( 6000 pieds ).

Observation METAR:

LFLS 241000Z AUTO 36010KT 9999 FEW019 SCT027 OVC060 08/02 Q1015 NOSIG=